sensor_id;sensor_type;location;lat;lon;timestamp;temperature;humidity
54082;DHT22;39986;50.770;0.266;2023-02-03T00:02:09;9.70;99.90
54082;DHT22;39986;50.770;0.266;2023-02-03T00:04:35;9.80;99.90
54082;DHT22;39986;50.770;0.266;2023-02-03T00:07:01;9.60;99.90
54082;DHT22;39986;50.770;0.266;2023-02-03T00:09:27;9.70;99.90
54082;DHT22;39986;50.770;0.266;2023-02-03T00:11:52;9.70;99.90
54082;DHT22;39986;50.770;0.266;2023-02-03T00:14:18;9.60;99.90
54082;DHT22;39986;50.770;0.266;2023-02-03T00:16:43;9.70;99.90
54082;DHT22;39986;50.770;0.266;2023-02-03T00:19:09;9.70;99.90
54082;DHT22;39986;50.770;0.266;2023-02-03T00:21:34;9.60;99.90
54082;DHT22;39986;50.770;0.266;2023-02-03T00:24:00;9.50;99.90
54082;DHT22;39986;50.770;0.266;2023-02-03T00:26:25;9.50;99.90
54082;DHT22;39986;50.770;0.266;2023-02-03T00:28:53;9.40;99.90
54082;DHT22;39986;50.770;0.266;2023-02-03T00:31:20;9.40;99.90
54082;DHT22;39986;50.770;0.266;2023-02-03T00:33:46;9.40;99.90
54082;DHT22;39986;50.770;0.266;2023-02-03T00:36:11;9.40;99.90
54082;DHT22;39986;50.770;0.266;2023-02-03T00:38:37;9.50;99.90
54082;DHT22;39986;50.770;0.266;2023-02-03T00:41:02;9.50;99.90
54082;DHT22;39986;50.770;0.266;2023-02-03T00:43:28;9.50;99.90
54082;DHT22;39986;50.770;0.266;2023-02-03T00:45:53;9.50;99.90
54082;DHT22;39986;50.770;0.266;2023-02-03T00:48:19;9.50;99.90
54082;DHT22;39986;50.770;0.266;2023-02-03T00:50:45;9.70;99.90
54082;DHT22;39986;50.770;0.266;2023-02-03T00:53:11;9.60;99.90
54082;DHT22;39986;50.770;0.266;2023-02-03T00:55:36;9.60;99.90
54082;DHT22;39986;50.770;0.266;2023-02-03T00:58:02;9.60;99.90
54082;DHT22;39986;50.770;0.266;2023-02-03T01:00:28;9.60;99.90
54082;DHT22;39986;50.770;0.266;2023-02-03T01:02:54;9.60;99.90
54082;DHT22;39986;50.770;0.266;2023-02-03T01:05:20;9.60;99.90
54082;DHT22;39986;50.770;0.266;2023-02-03T01:07:45;9.60;99.90
54082;DHT22;39986;50.770;0.266;2023-02-03T01:10:11;9.60;99.90
54082;DHT22;39986;50.770;0.266;2023-02-03T01:12:36;9.60;99.90
54082;DHT22;39986;50.770;0.266;2023-02-03T01:15:02;9.60;99.90
54082;DHT22;39986;50.770;0.266;2023-02-03T01:17:27;9.60;99.90
54082;DHT22;39986;50.770;0.266;2023-02-03T01:19:53;9.60;99.90
54082;DHT22;39986;50.770;0.266;2023-02-03T01:22:18;9.50;99.90
54082;DHT22;39986;50.770;0.266;2023-02-03T01:24:44;9.50;99.90
54082;DHT22;39986;50.770;0.266;2023-02-03T01:27:10;9.60;99.90
54082;DHT22;39986;50.770;0.266;2023-02-03T01:29:36;9.60;99.90
54082;DHT22;39986;50.770;0.266;2023-02-03T01:32:01;9.50;99.90
54082;DHT22;39986;50.770;0.266;2023-02-03T01:34:28;9.60;99.90
54082;DHT22;39986;50.770;0.266;2023-02-03T01:36:53;9.60;99.90
54082;DHT22;39986;50.770;0.266;2023-02-03T01:39:19;9.50;99.90
54082;DHT22;39986;50.770;0.266;2023-02-03T01:41:45;9.50;99.90
54082;DHT22;39986;50.770;0.266;2023-02-03T01:46:54;9.50;99.90
54082;DHT22;39986;50.770;0.266;2023-02-03T01:51:49;9.50;99.90
54082;DHT22;39986;50.770;0.266;2023-02-03T01:54:16;9.50;99.90
54082;DHT22;39986;50.770;0.266;2023-02-03T01:56:44;9.40;99.90
54082;DHT22;39986;50.770;0.266;2023-02-03T01:59:11;9.50;99.90
54082;DHT22;39986;50.770;0.266;2023-02-03T02:01:39;9.50;99.90
54082;DHT22;39986;50.770;0.266;2023-02-03T02:04:04;9.40;99.90
54082;DHT22;39986;50.770;0.266;2023-02-03T02:06:30;9.40;99.90
54082;DHT22;39986;50.770;0.266;2023-02-03T02:08:56;9.50;99.90
54082;DHT22;39986;50.770;0.266;2023-02-03T02:11:23;9.40;99.90
54082;DHT22;39986;50.770;0.266;2023-02-03T02:13:49;9.40;99.90
54082;DHT22;39986;50.770;0.266;2023-02-03T02:24:34;9.40;99.90
54082;DHT22;39986;50.770;0.266;2023-02-03T02:27:03;9.50;99.90
54082;DHT22;39986;50.770;0.266;2023-02-03T02:32:17;9.50;99.90
54082;DHT22;39986;50.770;0.266;2023-02-03T02:44:46;9.40;99.90
54082;DHT22;39986;50.770;0.266;2023-02-03T02:47:20;9.30;99.90
54082;DHT22;39986;50.770;0.266;2023-02-03T02:52:19;9.40;99.90
54082;DHT22;39986;50.770;0.266;2023-02-03T02:54:47;9.40;99.90
54082;DHT22;39986;50.770;0.266;2023-02-03T02:57:13;9.50;99.90
54082;DHT22;39986;50.770;0.266;2023-02-03T02:59:41;9.50;99.90
54082;DHT22;39986;50.770;0.266;2023-02-03T03:02:07;9.50;99.90
54082;DHT22;39986;50.770;0.266;2023-02-03T03:04:34;9.50;99.90
54082;DHT22;39986;50.770;0.266;2023-02-03T03:07:00;9.50;99.90
54082;DHT22;39986;50.770;0.266;2023-02-03T03:15:03;9.40;99.90
54082;DHT22;39986;50.770;0.266;2023-02-03T03:17:32;9.40;99.90
54082;DHT22;39986;50.770;0.266;2023-02-03T03:20:00;9.40;99.90
54082;DHT22;39986;50.770;0.266;2023-02-03T03:22:31;9.40;99.90
54082;DHT22;39986;50.770;0.266;2023-02-03T03:24:59;9.40;99.90
54082;DHT22;39986;50.770;0.266;2023-02-03T03:27:28;9.40;99.90
54082;DHT22;39986;50.770;0.266;2023-02-03T03:29:56;9.30;99.90
54082;DHT22;39986;50.770;0.266;2023-02-03T03:32:23;9.20;99.90
54082;DHT22;39986;50.770;0.266;2023-02-03T03:34:49;9.30;99.90
54082;DHT22;39986;50.770;0.266;2023-02-03T03:37:21;9.30;99.90
54082;DHT22;39986;50.770;0.266;2023-02-03T03:39:50;9.30;99.90
54082;DHT22;39986;50.770;0.266;2023-02-03T03:45:04;9.40;99.90
54082;DHT22;39986;50.770;0.266;2023-02-03T03:47:31;9.40;99.90
54082;DHT22;39986;50.770;0.266;2023-02-03T03:49:58;9.40;99.90
54082;DHT22;39986;50.770;0.266;2023-02-03T03:52:26;9.30;99.90
54082;DHT22;39986;50.770;0.266;2023-02-03T03:54:53;9.40;99.90
54082;DHT22;39986;50.770;0.266;2023-02-03T03:57:26;9.30;99.90
54082;DHT22;39986;50.770;0.266;2023-02-03T03:59:53;9.40;99.90
54082;DHT22;39986;50.770;0.266;2023-02-03T04:02:19;9.30;99.90
54082;DHT22;39986;50.770;0.266;2023-02-03T04:04:45;9.30;99.90
54082;DHT22;39986;50.770;0.266;2023-02-03T04:07:12;9.30;99.90
54082;DHT22;39986;50.770;0.266;2023-02-03T04:09:38;9.30;99.90
54082;DHT22;39986;50.770;0.266;2023-02-03T04:12:05;9.30;99.90
54082;DHT22;39986;50.770;0.266;2023-02-03T04:14:35;9.30;99.90
54082;DHT22;39986;50.770;0.266;2023-02-03T04:17:03;9.30;99.90
54082;DHT22;39986;50.770;0.266;2023-02-03T04:19:28;9.30;99.90
54082;DHT22;39986;50.770;0.266;2023-02-03T04:21:54;9.20;99.90
54082;DHT22;39986;50.770;0.266;2023-02-03T04:24:20;9.20;99.90
54082;DHT22;39986;50.770;0.266;2023-02-03T04:26:45;9.20;99.90
54082;DHT22;39986;50.770;0.266;2023-02-03T04:29:11;9.20;99.90
54082;DHT22;39986;50.770;0.266;2023-02-03T04:31:36;9.10;99.90
54082;DHT22;39986;50.770;0.266;2023-02-03T04:34:03;9.20;99.90
54082;DHT22;39986;50.770;0.266;2023-02-03T04:36:28;9.30;99.90
54082;DHT22;39986;50.770;0.266;2023-02-03T04:38:54;9.20;99.90
54082;DHT22;39986;50.770;0.266;2023-02-03T04:41:20;9.10;99.90
54082;DHT22;39986;50.770;0.266;2023-02-03T04:43:45;9.10;99.90
54082;DHT22;39986;50.770;0.266;2023-02-03T04:46:11;9.20;99.90
54082;DHT22;39986;50.770;0.266;2023-02-03T04:48:36;9.10;99.90
54082;DHT22;39986;50.770;0.266;2023-02-03T04:51:03;9.10;99.90
54082;DHT22;39986;50.770;0.266;2023-02-03T04:53:30;9.10;99.90
54082;DHT22;39986;50.770;0.266;2023-02-03T04:55:55;9.10;99.90
54082;DHT22;39986;50.770;0.266;2023-02-03T04:58:21;9.10;99.90
54082;DHT22;39986;50.770;0.266;2023-02-03T05:00:46;9.10;99.90
54082;DHT22;39986;50.770;0.266;2023-02-03T05:03:12;9.20;99.90
54082;DHT22;39986;50.770;0.266;2023-02-03T05:05:38;9.20;99.90
54082;DHT22;39986;50.770;0.266;2023-02-03T05:08:03;9.10;99.90
54082;DHT22;39986;50.770;0.266;2023-02-03T05:10:29;9.20;99.90
54082;DHT22;39986;50.770;0.266;2023-02-03T05:12:54;9.10;99.90
54082;DHT22;39986;50.770;0.266;2023-02-03T05:15:21;9.10;99.90
54082;DHT22;39986;50.770;0.266;2023-02-03T05:17:46;9.20;99.90
54082;DHT22;39986;50.770;0.266;2023-02-03T05:20:12;9.20;99.90
54082;DHT22;39986;50.770;0.266;2023-02-03T05:22:37;9.10;99.90
54082;DHT22;39986;50.770;0.266;2023-02-03T05:25:03;9.10;99.90
54082;DHT22;39986;50.770;0.266;2023-02-03T05:27:29;9.10;99.90
54082;DHT22;39986;50.770;0.266;2023-02-03T05:29:55;9.10;99.90
54082;DHT22;39986;50.770;0.266;2023-02-03T05:32:20;9.10;99.90
54082;DHT22;39986;50.770;0.266;2023-02-03T05:34:46;9.00;99.90
54082;DHT22;39986;50.770;0.266;2023-02-03T05:37:11;9.10;99.90
54082;DHT22;39986;50.770;0.266;2023-02-03T05:39:37;9.10;99.90
54082;DHT22;39986;50.770;0.266;2023-02-03T05:42:02;9.10;99.90
54082;DHT22;39986;50.770;0.266;2023-02-03T05:44:28;9.10;99.90
54082;DHT22;39986;50.770;0.266;2023-02-03T05:46:55;9.10;99.90
54082;DHT22;39986;50.770;0.266;2023-02-03T05:49:21;9.00;99.90
54082;DHT22;39986;50.770;0.266;2023-02-03T05:51:50;9.10;99.90
54082;DHT22;39986;50.770;0.266;2023-02-03T05:54:16;9.10;99.90
54082;DHT22;39986;50.770;0.266;2023-02-03T05:56:42;9.00;99.90
54082;DHT22;39986;50.770;0.266;2023-02-03T05:59:07;9.00;99.90
54082;DHT22;39986;50.770;0.266;2023-02-03T06:01:33;9.10;99.90
54082;DHT22;39986;50.770;0.266;2023-02-03T06:04:00;9.00;99.90
54082;DHT22;39986;50.770;0.266;2023-02-03T06:06:25;9.00;99.90
54082;DHT22;39986;50.770;0.266;2023-02-03T06:08:59;9.10;99.90
54082;DHT22;39986;50.770;0.266;2023-02-03T06:11:24;8.90;99.90
54082;DHT22;39986;50.770;0.266;2023-02-03T06:13:50;9.00;99.90
54082;DHT22;39986;50.770;0.266;2023-02-03T06:16:15;9.10;99.90
54082;DHT22;39986;50.770;0.266;2023-02-03T06:18:41;9.10;99.90
54082;DHT22;39986;50.770;0.266;2023-02-03T06:21:07;9.10;99.90
54082;DHT22;39986;50.770;0.266;2023-02-03T06:23:32;9.00;99.90
54082;DHT22;39986;50.770;0.266;2023-02-03T06:25:58;9.00;99.90
54082;DHT22;39986;50.770;0.266;2023-02-03T06:28:26;9.00;99.90
54082;DHT22;39986;50.770;0.266;2023-02-03T06:30:52;9.00;99.90
54082;DHT22;39986;50.770;0.266;2023-02-03T06:33:20;8.90;99.90
54082;DHT22;39986;50.770;0.266;2023-02-03T06:35:46;9.00;99.90
54082;DHT22;39986;50.770;0.266;2023-02-03T06:38:12;9.00;99.90
54082;DHT22;39986;50.770;0.266;2023-02-03T06:40:37;9.00;99.90
54082;DHT22;39986;50.770;0.266;2023-02-03T06:43:03;9.00;99.90
54082;DHT22;39986;50.770;0.266;2023-02-03T06:45:29;8.90;99.90
54082;DHT22;39986;50.770;0.266;2023-02-03T06:47:54;8.90;99.90
54082;DHT22;39986;50.770;0.266;2023-02-03T06:50:20;9.00;99.90
54082;DHT22;39986;50.770;0.266;2023-02-03T06:52:46;8.90;99.90
54082;DHT22;39986;50.770;0.266;2023-02-03T06:55:13;8.90;99.90
54082;DHT22;39986;50.770;0.266;2023-02-03T06:57:42;8.90;99.90
54082;DHT22;39986;50.770;0.266;2023-02-03T07:00:08;8.90;99.90
54082;DHT22;39986;50.770;0.266;2023-02-03T07:02:33;8.90;99.90
54082;DHT22;39986;50.770;0.266;2023-02-03T07:04:59;8.90;99.90
54082;DHT22;39986;50.770;0.266;2023-02-03T07:07:25;8.90;99.90
54082;DHT22;39986;50.770;0.266;2023-02-03T07:09:50;8.80;99.90
54082;DHT22;39986;50.770;0.266;2023-02-03T07:12:16;8.80;99.90
54082;DHT22;39986;50.770;0.266;2023-02-03T07:14:41;8.80;99.90
54082;DHT22;39986;50.770;0.266;2023-02-03T07:17:07;8.80;99.90
54082;DHT22;39986;50.770;0.266;2023-02-03T07:19:32;8.80;99.90
54082;DHT22;39986;50.770;0.266;2023-02-03T07:21:58;8.90;99.90
54082;DHT22;39986;50.770;0.266;2023-02-03T07:24:24;8.90;99.90
54082;DHT22;39986;50.770;0.266;2023-02-03T07:26:49;8.90;99.90
54082;DHT22;39986;50.770;0.266;2023-02-03T07:29:15;8.90;99.90
54082;DHT22;39986;50.770;0.266;2023-02-03T07:31:40;8.90;99.90
54082;DHT22;39986;50.770;0.266;2023-02-03T07:34:06;8.90;99.90
54082;DHT22;39986;50.770;0.266;2023-02-03T07:36:31;8.80;99.90
54082;DHT22;39986;50.770;0.266;2023-02-03T07:38:57;8.80;99.90
54082;DHT22;39986;50.770;0.266;2023-02-03T07:41:23;8.80;99.90
54082;DHT22;39986;50.770;0.266;2023-02-03T07:43:48;8.70;99.90
54082;DHT22;39986;50.770;0.266;2023-02-03T07:46:14;8.80;99.90
54082;DHT22;39986;50.770;0.266;2023-02-03T07:48:40;8.80;99.90
54082;DHT22;39986;50.770;0.266;2023-02-03T07:51:05;8.70;99.90
54082;DHT22;39986;50.770;0.266;2023-02-03T07:53:56;8.80;99.90
54082;DHT22;39986;50.770;0.266;2023-02-03T07:56:22;8.70;99.90
54082;DHT22;39986;50.770;0.266;2023-02-03T07:58:50;8.80;99.90
54082;DHT22;39986;50.770;0.266;2023-02-03T08:01:16;9.00;99.90
54082;DHT22;39986;50.770;0.266;2023-02-03T08:03:41;8.90;99.90
54082;DHT22;39986;50.770;0.266;2023-02-03T08:06:07;8.90;99.90
54082;DHT22;39986;50.770;0.266;2023-02-03T08:08:33;8.90;99.90
54082;DHT22;39986;50.770;0.266;2023-02-03T08:10:58;8.90;99.90
54082;DHT22;39986;50.770;0.266;2023-02-03T08:13:24;9.10;99.90
54082;DHT22;39986;50.770;0.266;2023-02-03T08:15:49;9.00;99.90
54082;DHT22;39986;50.770;0.266;2023-02-03T08:18:15;9.00;99.90
54082;DHT22;39986;50.770;0.266;2023-02-03T08:20:41;9.20;99.90
54082;DHT22;39986;50.770;0.266;2023-02-03T08:23:06;9.10;99.90
54082;DHT22;39986;50.770;0.266;2023-02-03T08:25:32;9.10;99.90
54082;DHT22;39986;50.770;0.266;2023-02-03T08:27:57;9.10;99.90
54082;DHT22;39986;50.770;0.266;2023-02-03T08:30:23;9.20;99.90
54082;DHT22;39986;50.770;0.266;2023-02-03T08:32:49;9.20;99.90
54082;DHT22;39986;50.770;0.266;2023-02-03T08:35:14;9.20;99.90
54082;DHT22;39986;50.770;0.266;2023-02-03T08:37:40;9.20;99.90
54082;DHT22;39986;50.770;0.266;2023-02-03T08:40:05;9.20;99.90
54082;DHT22;39986;50.770;0.266;2023-02-03T08:42:31;9.30;99.90
54082;DHT22;39986;50.770;0.266;2023-02-03T08:44:57;9.40;99.90
54082;DHT22;39986;50.770;0.266;2023-02-03T08:47:22;9.40;99.90
54082;DHT22;39986;50.770;0.266;2023-02-03T08:49:48;9.50;99.90
54082;DHT22;39986;50.770;0.266;2023-02-03T08:52:15;9.40;99.90
54082;DHT22;39986;50.770;0.266;2023-02-03T08:54:41;9.60;99.90
54082;DHT22;39986;50.770;0.266;2023-02-03T08:57:06;9.60;99.90
54082;DHT22;39986;50.770;0.266;2023-02-03T08:59:32;9.60;99.90
54082;DHT22;39986;50.770;0.266;2023-02-03T09:02:01;9.60;99.90
54082;DHT22;39986;50.770;0.266;2023-02-03T09:04:26;9.60;99.90
54082;DHT22;39986;50.770;0.266;2023-02-03T09:06:53;9.70;99.90
54082;DHT22;39986;50.770;0.266;2023-02-03T09:09:22;9.70;99.90
54082;DHT22;39986;50.770;0.266;2023-02-03T09:11:47;9.70;99.90
54082;DHT22;39986;50.770;0.266;2023-02-03T09:14:13;9.80;99.90
54082;DHT22;39986;50.770;0.266;2023-02-03T09:16:38;9.80;99.90
54082;DHT22;39986;50.770;0.266;2023-02-03T09:19:04;9.80;99.90
54082;DHT22;39986;50.770;0.266;2023-02-03T09:21:30;9.80;99.90
54082;DHT22;39986;50.770;0.266;2023-02-03T09:23:55;9.80;99.90
54082;DHT22;39986;50.770;0.266;2023-02-03T09:26:24;9.90;99.90
54082;DHT22;39986;50.770;0.266;2023-02-03T09:28:51;9.90;99.90
54082;DHT22;39986;50.770;0.266;2023-02-03T09:31:16;9.90;99.90
54082;DHT22;39986;50.770;0.266;2023-02-03T09:33:42;10.10;99.90
54082;DHT22;39986;50.770;0.266;2023-02-03T09:36:08;10.20;99.90
54082;DHT22;39986;50.770;0.266;2023-02-03T09:38:34;10.10;99.90
54082;DHT22;39986;50.770;0.266;2023-02-03T09:41:04;10.20;99.90
54082;DHT22;39986;50.770;0.266;2023-02-03T09:46:06;10.40;99.90
54082;DHT22;39986;50.770;0.266;2023-02-03T09:48:40;10.40;99.90
54082;DHT22;39986;50.770;0.266;2023-02-03T09:51:30;10.50;99.90
54082;DHT22;39986;50.770;0.266;2023-02-03T09:53:59;10.70;99.90
54082;DHT22;39986;50.770;0.266;2023-02-03T09:56:32;10.70;99.90
54082;DHT22;39986;50.770;0.266;2023-02-03T09:58:59;10.80;99.90
54082;DHT22;39986;50.770;0.266;2023-02-03T10:01:27;11.10;99.90
54082;DHT22;39986;50.770;0.266;2023-02-03T10:03:58;11.50;99.90
54082;DHT22;39986;50.770;0.266;2023-02-03T10:09:10;12.00;99.90
54082;DHT22;39986;50.770;0.266;2023-02-03T10:22:00;11.30;99.90
54082;DHT22;39986;50.770;0.266;2023-02-03T10:24:50;11.20;99.90
54082;DHT22;39986;50.770;0.266;2023-02-03T10:27:17;11.20;99.90
54082;DHT22;39986;50.770;0.266;2023-02-03T10:29:43;11.30;99.90
54082;DHT22;39986;50.770;0.266;2023-02-03T10:32:09;11.60;99.90
54082;DHT22;39986;50.770;0.266;2023-02-03T10:34:35;12.00;99.90
54082;DHT22;39986;50.770;0.266;2023-02-03T10:37:16;12.40;99.90
54082;DHT22;39986;50.770;0.266;2023-02-03T10:39:46;12.90;99.90
54082;DHT22;39986;50.770;0.266;2023-02-03T10:42:12;13.40;99.90
54082;DHT22;39986;50.770;0.266;2023-02-03T10:44:45;13.80;99.90
54082;DHT22;39986;50.770;0.266;2023-02-03T10:47:39;14.20;99.90
54082;DHT22;39986;50.770;0.266;2023-02-03T10:50:13;15.50;99.90
54082;DHT22;39986;50.770;0.266;2023-02-03T10:52:39;16.10;99.90
54082;DHT22;39986;50.770;0.266;2023-02-03T10:55:06;16.70;99.90
54082;DHT22;39986;50.770;0.266;2023-02-03T10:57:34;16.30;99.90
54082;DHT22;39986;50.770;0.266;2023-02-03T11:00:18;15.90;99.90
54082;DHT22;39986;50.770;0.266;2023-02-03T11:02:53;15.30;99.90
54082;DHT22;39986;50.770;0.266;2023-02-03T11:05:19;14.90;99.90
54082;DHT22;39986;50.770;0.266;2023-02-03T11:07:45;14.90;99.90
54082;DHT22;39986;50.770;0.266;2023-02-03T11:15:33;16.00;99.90
54082;DHT22;39986;50.770;0.266;2023-02-03T11:17:58;16.20;99.90
54082;DHT22;39986;50.770;0.266;2023-02-03T11:20:24;16.50;99.90
54082;DHT22;39986;50.770;0.266;2023-02-03T11:22:52;16.50;99.90
54082;DHT22;39986;50.770;0.266;2023-02-03T11:25:30;16.30;99.90
54082;DHT22;39986;50.770;0.266;2023-02-03T11:27:56;16.10;99.90
54082;DHT22;39986;50.770;0.266;2023-02-03T11:30:28;16.20;99.90
54082;DHT22;39986;50.770;0.266;2023-02-03T11:32:54;15.90;99.90
54082;DHT22;39986;50.770;0.266;2023-02-03T11:37:46;16.00;99.90
54082;DHT22;39986;50.770;0.266;2023-02-03T11:40:21;16.70;99.90
54082;DHT22;39986;50.770;0.266;2023-02-03T11:47:48;18.70;99.90
54082;DHT22;39986;50.770;0.266;2023-02-03T11:50:35;19.30;99.90
54082;DHT22;39986;50.770;0.266;2023-02-03T11:55:35;20.60;99.90
54082;DHT22;39986;50.770;0.266;2023-02-03T11:58:13;20.90;99.90
54082;DHT22;39986;50.770;0.266;2023-02-03T12:13:55;22.40;99.90
54082;DHT22;39986;50.770;0.266;2023-02-03T12:21:48;24.60;99.90
54082;DHT22;39986;50.770;0.266;2023-02-03T12:29:34;24.40;99.90
54082;DHT22;39986;50.770;0.266;2023-02-03T12:34:33;24.00;99.90
54082;DHT22;39986;50.770;0.266;2023-02-03T12:37:07;24.20;99.90
54082;DHT22;39986;50.770;0.266;2023-02-03T12:39:37;24.70;99.90
54082;DHT22;39986;50.770;0.266;2023-02-03T12:42:17;25.20;99.90
54082;DHT22;39986;50.770;0.266;2023-02-03T12:45:28;25.00;99.90
54082;DHT22;39986;50.770;0.266;2023-02-03T12:47:35;25.50;99.90
54082;DHT22;39986;50.770;0.266;2023-02-03T12:50:13;25.20;99.90
54082;DHT22;39986;50.770;0.266;2023-02-03T12:52:46;25.80;99.90
54082;DHT22;39986;50.770;0.266;2023-02-03T12:55:33;27.20;99.90
54082;DHT22;39986;50.770;0.266;2023-02-03T12:58:10;28.40;98.10
54082;DHT22;39986;50.770;0.266;2023-02-03T13:00:47;29.20;95.80
54082;DHT22;39986;50.770;0.266;2023-02-03T13:06:06;27.90;95.90
54082;DHT22;39986;50.770;0.266;2023-02-03T13:08:36;28.00;95.60
54082;DHT22;39986;50.770;0.266;2023-02-03T13:11:11;27.70;96.00
54082;DHT22;39986;50.770;0.266;2023-02-03T13:13:46;28.10;96.30
54082;DHT22;39986;50.770;0.266;2023-02-03T13:16:13;27.70;95.30
54082;DHT22;39986;50.770;0.266;2023-02-03T13:18:41;27.60;96.30
54082;DHT22;39986;50.770;0.266;2023-02-03T13:21:11;28.40;95.00
54082;DHT22;39986;50.770;0.266;2023-02-03T13:23:40;28.60;94.30
54082;DHT22;39986;50.770;0.266;2023-02-03T13:26:20;29.40;93.70
54082;DHT22;39986;50.770;0.266;2023-02-03T13:28:53;29.80;92.40
54082;DHT22;39986;50.770;0.266;2023-02-03T13:31:32;30.20;91.20
54082;DHT22;39986;50.770;0.266;2023-02-03T13:34:04;29.70;91.30
54082;DHT22;39986;50.770;0.266;2023-02-03T13:41:52;29.40;92.40
54082;DHT22;39986;50.770;0.266;2023-02-03T13:44:20;29.80;90.20
54082;DHT22;39986;50.770;0.266;2023-02-03T13:46:47;29.70;90.70
54082;DHT22;39986;50.770;0.266;2023-02-03T13:49:17;29.70;91.10
54082;DHT22;39986;50.770;0.266;2023-02-03T13:51:50;29.70;89.80
54082;DHT22;39986;50.770;0.266;2023-02-03T13:54:20;29.80;90.10
54082;DHT22;39986;50.770;0.266;2023-02-03T13:56:52;30.10;90.50
54082;DHT22;39986;50.770;0.266;2023-02-03T14:01:48;32.40;81.00
54082;DHT22;39986;50.770;0.266;2023-02-03T14:11:45;29.60;84.40
54082;DHT22;39986;50.770;0.266;2023-02-03T14:19:02;26.90;91.50
54082;DHT22;39986;50.770;0.266;2023-02-03T14:21:35;26.10;94.20
54082;DHT22;39986;50.770;0.266;2023-02-03T14:24:04;26.20;94.90
54082;DHT22;39986;50.770;0.266;2023-02-03T14:26:32;27.10;92.90
54082;DHT22;39986;50.770;0.266;2023-02-03T14:28:59;27.90;92.40
54082;DHT22;39986;50.770;0.266;2023-02-03T14:31:25;28.60;90.90
54082;DHT22;39986;50.770;0.266;2023-02-03T14:36:33;26.90;92.50
54082;DHT22;39986;50.770;0.266;2023-02-03T14:39:01;26.60;93.30
54082;DHT22;39986;50.770;0.266;2023-02-03T14:41:28;27.00;92.20
54082;DHT22;39986;50.770;0.266;2023-02-03T14:44:03;27.70;91.60
54082;DHT22;39986;50.770;0.266;2023-02-03T14:46:52;27.20;91.90
54082;DHT22;39986;50.770;0.266;2023-02-03T14:49:36;25.50;94.40
54082;DHT22;39986;50.770;0.266;2023-02-03T14:52:13;23.30;99.90
54082;DHT22;39986;50.770;0.266;2023-02-03T14:55:19;21.50;99.90
54082;DHT22;39986;50.770;0.266;2023-02-03T14:57:44;20.60;99.90
54082;DHT22;39986;50.770;0.266;2023-02-03T15:07:55;18.00;99.90
54082;DHT22;39986;50.770;0.266;2023-02-03T15:10:24;17.50;99.90
54082;DHT22;39986;50.770;0.266;2023-02-03T15:12:51;17.30;99.90
54082;DHT22;39986;50.770;0.266;2023-02-03T15:17:43;17.20;99.90
54082;DHT22;39986;50.770;0.266;2023-02-03T15:20:30;16.90;99.90
54082;DHT22;39986;50.770;0.266;2023-02-03T15:22:59;16.80;99.90
54082;DHT22;39986;50.770;0.266;2023-02-03T15:25:25;16.50;99.90
54082;DHT22;39986;50.770;0.266;2023-02-03T15:27:52;16.10;99.90
54082;DHT22;39986;50.770;0.266;2023-02-03T15:30:23;15.70;99.90
54082;DHT22;39986;50.770;0.266;2023-02-03T15:35:25;15.20;99.90
54082;DHT22;39986;50.770;0.266;2023-02-03T15:37:53;14.90;99.90
54082;DHT22;39986;50.770;0.266;2023-02-03T15:40:25;14.70;99.90
54082;DHT22;39986;50.770;0.266;2023-02-03T15:47:54;14.50;99.90
54082;DHT22;39986;50.770;0.266;2023-02-03T15:52:56;14.20;99.90
54082;DHT22;39986;50.770;0.266;2023-02-03T15:55:28;14.10;99.90
54082;DHT22;39986;50.770;0.266;2023-02-03T15:57:56;13.90;99.90
54082;DHT22;39986;50.770;0.266;2023-02-03T16:00:27;13.70;99.90
54082;DHT22;39986;50.770;0.266;2023-02-03T16:02:53;13.60;99.90
54082;DHT22;39986;50.770;0.266;2023-02-03T16:05:29;13.50;99.90
54082;DHT22;39986;50.770;0.266;2023-02-03T16:07:55;13.40;99.90
54082;DHT22;39986;50.770;0.266;2023-02-03T16:10:25;13.30;99.90
54082;DHT22;39986;50.770;0.266;2023-02-03T16:12:51;13.20;99.90
54082;DHT22;39986;50.770;0.266;2023-02-03T16:15:20;13.10;99.90
54082;DHT22;39986;50.770;0.266;2023-02-03T16:17:46;13.10;99.90
54082;DHT22;39986;50.770;0.266;2023-02-03T16:20:19;13.00;99.90
54082;DHT22;39986;50.770;0.266;2023-02-03T16:22:55;12.90;99.90
54082;DHT22;39986;50.770;0.266;2023-02-03T16:25:29;12.90;99.90
54082;DHT22;39986;50.770;0.266;2023-02-03T16:27:56;12.90;99.90
54082;DHT22;39986;50.770;0.266;2023-02-03T16:33:47;12.70;99.90
54082;DHT22;39986;50.770;0.266;2023-02-03T16:36:32;12.70;99.90
54082;DHT22;39986;50.770;0.266;2023-02-03T16:39:16;12.60;99.90
54082;DHT22;39986;50.770;0.266;2023-02-03T16:42:05;12.50;99.90
54082;DHT22;39986;50.770;0.266;2023-02-03T16:45:15;12.50;99.90
54082;DHT22;39986;50.770;0.266;2023-02-03T16:48:01;12.30;99.90
54082;DHT22;39986;50.770;0.266;2023-02-03T16:50:45;12.40;99.90
54082;DHT22;39986;50.770;0.266;2023-02-03T16:53:23;12.20;99.90
54082;DHT22;39986;50.770;0.266;2023-02-03T16:55:50;12.10;99.90
54082;DHT22;39986;50.770;0.266;2023-02-03T16:58:16;12.00;99.90
54082;DHT22;39986;50.770;0.266;2023-02-03T17:00:43;12.00;99.90
54082;DHT22;39986;50.770;0.266;2023-02-03T17:03:09;12.00;99.90
54082;DHT22;39986;50.770;0.266;2023-02-03T17:05:36;12.00;99.90
54082;DHT22;39986;50.770;0.266;2023-02-03T17:08:02;12.00;99.90
54082;DHT22;39986;50.770;0.266;2023-02-03T17:10:28;12.00;99.90
54082;DHT22;39986;50.770;0.266;2023-02-03T17:12:56;11.90;99.90
54082;DHT22;39986;50.770;0.266;2023-02-03T17:15:22;11.90;99.90
54082;DHT22;39986;50.770;0.266;2023-02-03T17:17:47;11.80;99.90
54082;DHT22;39986;50.770;0.266;2023-02-03T17:20:13;11.90;99.90
54082;DHT22;39986;50.770;0.266;2023-02-03T17:22:39;11.90;99.90
54082;DHT22;39986;50.770;0.266;2023-02-03T17:25:04;11.80;99.90
54082;DHT22;39986;50.770;0.266;2023-02-03T17:27:30;11.80;99.90
54082;DHT22;39986;50.770;0.266;2023-02-03T17:29:55;11.80;99.90
54082;DHT22;39986;50.770;0.266;2023-02-03T17:32:21;11.70;99.90
54082;DHT22;39986;50.770;0.266;2023-02-03T17:34:46;11.70;99.90
54082;DHT22;39986;50.770;0.266;2023-02-03T17:37:12;11.70;99.90
54082;DHT22;39986;50.770;0.266;2023-02-03T17:39:37;11.70;99.90
54082;DHT22;39986;50.770;0.266;2023-02-03T17:42:03;11.70;99.90
54082;DHT22;39986;50.770;0.266;2023-02-03T17:44:29;11.70;99.90
54082;DHT22;39986;50.770;0.266;2023-02-03T17:46:54;11.70;99.90
54082;DHT22;39986;50.770;0.266;2023-02-03T17:49:20;11.60;99.90
54082;DHT22;39986;50.770;0.266;2023-02-03T17:51:46;11.60;99.90
54082;DHT22;39986;50.770;0.266;2023-02-03T17:54:13;11.60;99.90
54082;DHT22;39986;50.770;0.266;2023-02-03T17:56:42;11.60;99.90
54082;DHT22;39986;50.770;0.266;2023-02-03T17:59:11;11.50;99.90
54082;DHT22;39986;50.770;0.266;2023-02-03T18:01:37;11.50;99.90
54082;DHT22;39986;50.770;0.266;2023-02-03T18:04:03;11.50;99.90
54082;DHT22;39986;50.770;0.266;2023-02-03T18:06:30;11.50;99.90
54082;DHT22;39986;50.770;0.266;2023-02-03T18:08:57;11.50;99.90
54082;DHT22;39986;50.770;0.266;2023-02-03T18:11:25;11.50;99.90